sensor_id;sensor_type;location;lat;lon;timestamp;temperature;humidity
15977;DHT22;8091;51.914;12.786;2022-07-06T00:01:48;20.20;1.00
15977;DHT22;8091;51.914;12.786;2022-07-06T00:04:15;20.20;1.00
15977;DHT22;8091;51.914;12.786;2022-07-06T00:06:40;20.00;1.00
15977;DHT22;8091;51.914;12.786;2022-07-06T00:09:06;20.00;1.00
15977;DHT22;8091;51.914;12.786;2022-07-06T00:11:32;19.90;1.00
15977;DHT22;8091;51.914;12.786;2022-07-06T00:13:57;19.80;1.00
15977;DHT22;8091;51.914;12.786;2022-07-06T00:16:23;19.70;1.00
15977;DHT22;8091;51.914;12.786;2022-07-06T00:18:49;19.50;1.00
15977;DHT22;8091;51.914;12.786;2022-07-06T00:21:14;19.40;1.00
15977;DHT22;8091;51.914;12.786;2022-07-06T00:23:40;19.30;1.00
15977;DHT22;8091;51.914;12.786;2022-07-06T00:26:05;19.30;1.00
15977;DHT22;8091;51.914;12.786;2022-07-06T00:28:31;19.30;1.00
15977;DHT22;8091;51.914;12.786;2022-07-06T00:30:57;19.30;2.10
15977;DHT22;8091;51.914;12.786;2022-07-06T00:33:22;19.30;6.70
15977;DHT22;8091;51.914;12.786;2022-07-06T00:35:48;19.20;11.50
15977;DHT22;8091;51.914;12.786;2022-07-06T00:38:14;19.20;18.80
15977;DHT22;8091;51.914;12.786;2022-07-06T00:40:40;19.20;26.10
15977;DHT22;8091;51.914;12.786;2022-07-06T00:43:05;19.10;36.00
15977;DHT22;8091;51.914;12.786;2022-07-06T00:45:31;19.10;47.00
15977;DHT22;8091;51.914;12.786;2022-07-06T00:47:57;18.90;64.50
15977;DHT22;8091;51.914;12.786;2022-07-06T00:50:22;18.90;85.80
15977;DHT22;8091;51.914;12.786;2022-07-06T00:53:22;18.80;99.20
15977;DHT22;8091;51.914;12.786;2022-07-06T00:55:41;18.80;99.90
15977;DHT22;8091;51.914;12.786;2022-07-06T00:58:08;18.70;99.90
15977;DHT22;8091;51.914;12.786;2022-07-06T01:00:34;18.70;99.90
15977;DHT22;8091;51.914;12.786;2022-07-06T01:03:00;18.60;99.90
15977;DHT22;8091;51.914;12.786;2022-07-06T01:05:26;18.60;99.90
15977;DHT22;8091;51.914;12.786;2022-07-06T01:07:52;18.60;99.90
15977;DHT22;8091;51.914;12.786;2022-07-06T01:10:19;18.70;99.90
15977;DHT22;8091;51.914;12.786;2022-07-06T01:12:46;18.70;99.90
15977;DHT22;8091;51.914;12.786;2022-07-06T01:15:14;18.70;99.90
15977;DHT22;8091;51.914;12.786;2022-07-06T01:17:41;18.70;99.90
15977;DHT22;8091;51.914;12.786;2022-07-06T01:20:21;18.70;99.90
15977;DHT22;8091;51.914;12.786;2022-07-06T01:22:48;18.80;99.90
15977;DHT22;8091;51.914;12.786;2022-07-06T01:25:14;18.70;99.90
15977;DHT22;8091;51.914;12.786;2022-07-06T01:27:41;18.60;99.90
15977;DHT22;8091;51.914;12.786;2022-07-06T01:30:08;18.60;99.90
15977;DHT22;8091;51.914;12.786;2022-07-06T01:32:34;18.50;99.90
15977;DHT22;8091;51.914;12.786;2022-07-06T01:35:00;18.60;99.90
15977;DHT22;8091;51.914;12.786;2022-07-06T01:37:26;18.60;99.90
15977;DHT22;8091;51.914;12.786;2022-07-06T01:39:51;18.60;99.90
15977;DHT22;8091;51.914;12.786;2022-07-06T01:42:17;18.60;99.90
15977;DHT22;8091;51.914;12.786;2022-07-06T01:44:43;18.60;99.90
15977;DHT22;8091;51.914;12.786;2022-07-06T01:47:09;18.50;99.90
15977;DHT22;8091;51.914;12.786;2022-07-06T01:49:34;18.40;99.90
15977;DHT22;8091;51.914;12.786;2022-07-06T01:52:00;18.50;99.90
15977;DHT22;8091;51.914;12.786;2022-07-06T01:54:25;18.60;99.90
15977;DHT22;8091;51.914;12.786;2022-07-06T01:56:51;18.60;99.90
15977;DHT22;8091;51.914;12.786;2022-07-06T01:59:17;18.70;99.90
15977;DHT22;8091;51.914;12.786;2022-07-06T02:01:42;18.60;99.90
15977;DHT22;8091;51.914;12.786;2022-07-06T02:04:08;18.60;99.90
15977;DHT22;8091;51.914;12.786;2022-07-06T02:06:33;18.60;99.90
15977;DHT22;8091;51.914;12.786;2022-07-06T02:08:59;18.60;99.90
15977;DHT22;8091;51.914;12.786;2022-07-06T02:11:24;18.50;99.90
15977;DHT22;8091;51.914;12.786;2022-07-06T02:13:50;18.40;99.90
15977;DHT22;8091;51.914;12.786;2022-07-06T02:16:15;18.40;99.90
15977;DHT22;8091;51.914;12.786;2022-07-06T02:18:41;18.40;99.90
15977;DHT22;8091;51.914;12.786;2022-07-06T02:21:06;18.40;99.90
15977;DHT22;8091;51.914;12.786;2022-07-06T02:23:32;18.40;99.90
15977;DHT22;8091;51.914;12.786;2022-07-06T02:25:57;18.40;99.90
15977;DHT22;8091;51.914;12.786;2022-07-06T02:28:23;18.30;99.90
15977;DHT22;8091;51.914;12.786;2022-07-06T02:30:48;18.30;99.90
15977;DHT22;8091;51.914;12.786;2022-07-06T02:33:14;18.40;99.90
15977;DHT22;8091;51.914;12.786;2022-07-06T02:35:39;18.40;99.90
15977;DHT22;8091;51.914;12.786;2022-07-06T02:38:08;18.40;99.90
15977;DHT22;8091;51.914;12.786;2022-07-06T02:40:34;18.20;99.90
15977;DHT22;8091;51.914;12.786;2022-07-06T02:42:59;18.20;99.90
15977;DHT22;8091;51.914;12.786;2022-07-06T02:45:25;18.10;99.90
15977;DHT22;8091;51.914;12.786;2022-07-06T02:47:50;18.10;1.00
15977;DHT22;8091;51.914;12.786;2022-07-06T02:50:16;18.10;1.00
15977;DHT22;8091;51.914;12.786;2022-07-06T02:52:42;18.10;1.00
15977;DHT22;8091;51.914;12.786;2022-07-06T02:55:08;18.10;1.00
15977;DHT22;8091;51.914;12.786;2022-07-06T02:57:33;18.10;1.00
15977;DHT22;8091;51.914;12.786;2022-07-06T02:59:59;18.00;1.00
15977;DHT22;8091;51.914;12.786;2022-07-06T03:02:25;18.00;1.00
15977;DHT22;8091;51.914;12.786;2022-07-06T03:04:50;18.20;1.00
15977;DHT22;8091;51.914;12.786;2022-07-06T03:07:16;18.10;1.00
15977;DHT22;8091;51.914;12.786;2022-07-06T03:09:41;18.00;1.00
15977;DHT22;8091;51.914;12.786;2022-07-06T03:12:07;18.10;1.00
15977;DHT22;8091;51.914;12.786;2022-07-06T03:14:33;18.00;1.00
15977;DHT22;8091;51.914;12.786;2022-07-06T03:16:59;18.00;1.00
15977;DHT22;8091;51.914;12.786;2022-07-06T03:19:25;18.00;1.00
15977;DHT22;8091;51.914;12.786;2022-07-06T03:21:50;17.80;1.00
15977;DHT22;8091;51.914;12.786;2022-07-06T03:24:16;17.80;1.00
15977;DHT22;8091;51.914;12.786;2022-07-06T03:26:41;17.70;1.00
15977;DHT22;8091;51.914;12.786;2022-07-06T03:29:07;17.80;1.00
15977;DHT22;8091;51.914;12.786;2022-07-06T03:31:33;17.70;1.00
15977;DHT22;8091;51.914;12.786;2022-07-06T03:33:58;17.70;1.00
15977;DHT22;8091;51.914;12.786;2022-07-06T03:36:24;17.60;1.00
15977;DHT22;8091;51.914;12.786;2022-07-06T03:38:49;17.60;1.00
15977;DHT22;8091;51.914;12.786;2022-07-06T03:41:15;17.60;1.00
15977;DHT22;8091;51.914;12.786;2022-07-06T03:43:41;17.70;1.00
15977;DHT22;8091;51.914;12.786;2022-07-06T03:46:06;17.70;1.00
15977;DHT22;8091;51.914;12.786;2022-07-06T03:48:32;17.70;1.00
15977;DHT22;8091;51.914;12.786;2022-07-06T03:50:57;17.80;1.00
15977;DHT22;8091;51.914;12.786;2022-07-06T03:53:23;17.80;1.00
15977;DHT22;8091;51.914;12.786;2022-07-06T03:55:49;17.70;1.00
15977;DHT22;8091;51.914;12.786;2022-07-06T03:58:33;17.70;1.00
15977;DHT22;8091;51.914;12.786;2022-07-06T04:00:59;17.70;1.00
15977;DHT22;8091;51.914;12.786;2022-07-06T04:03:25;17.80;1.00
15977;DHT22;8091;51.914;12.786;2022-07-06T04:05:51;17.80;1.00
15977;DHT22;8091;51.914;12.786;2022-07-06T04:08:16;17.90;1.00
15977;DHT22;8091;51.914;12.786;2022-07-06T04:10:42;17.40;1.00
15977;DHT22;8091;51.914;12.786;2022-07-06T04:13:07;17.90;1.00
15977;DHT22;8091;51.914;12.786;2022-07-06T04:15:33;18.00;1.00
15977;DHT22;8091;51.914;12.786;2022-07-06T04:17:59;18.10;1.00
15977;DHT22;8091;51.914;12.786;2022-07-06T04:20:25;18.00;1.00
15977;DHT22;8091;51.914;12.786;2022-07-06T04:22:53;18.20;1.00
15977;DHT22;8091;51.914;12.786;2022-07-06T04:25:19;18.10;1.00
15977;DHT22;8091;51.914;12.786;2022-07-06T04:27:45;18.20;1.00
15977;DHT22;8091;51.914;12.786;2022-07-06T04:30:11;18.40;1.00
15977;DHT22;8091;51.914;12.786;2022-07-06T04:32:37;18.40;1.00
15977;DHT22;8091;51.914;12.786;2022-07-06T04:35:04;18.40;1.00
15977;DHT22;8091;51.914;12.786;2022-07-06T04:37:30;18.40;1.00
15977;DHT22;8091;51.914;12.786;2022-07-06T04:39:56;18.40;1.00
15977;DHT22;8091;51.914;12.786;2022-07-06T04:42:21;18.20;1.00
15977;DHT22;8091;51.914;12.786;2022-07-06T04:44:47;18.10;1.00
15977;DHT22;8091;51.914;12.786;2022-07-06T04:47:13;18.10;1.00
15977;DHT22;8091;51.914;12.786;2022-07-06T04:49:39;18.20;1.00
15977;DHT22;8091;51.914;12.786;2022-07-06T04:52:05;18.40;1.00
15977;DHT22;8091;51.914;12.786;2022-07-06T04:54:30;18.40;1.00
15977;DHT22;8091;51.914;12.786;2022-07-06T04:56:56;18.40;1.00
15977;DHT22;8091;51.914;12.786;2022-07-06T04:59:22;18.40;1.00
15977;DHT22;8091;51.914;12.786;2022-07-06T05:01:47;18.40;1.00
15977;DHT22;8091;51.914;12.786;2022-07-06T05:04:16;18.40;1.00
15977;DHT22;8091;51.914;12.786;2022-07-06T05:06:45;18.60;99.90
15977;DHT22;8091;51.914;12.786;2022-07-06T05:09:11;18.60;99.90
15977;DHT22;8091;51.914;12.786;2022-07-06T05:11:37;18.50;99.90
15977;DHT22;8091;51.914;12.786;2022-07-06T05:14:03;18.40;99.90
15977;DHT22;8091;51.914;12.786;2022-07-06T05:16:29;18.30;99.90
15977;DHT22;8091;51.914;12.786;2022-07-06T05:18:55;18.30;1.00
15977;DHT22;8091;51.914;12.786;2022-07-06T05:21:20;18.40;1.00
15977;DHT22;8091;51.914;12.786;2022-07-06T05:23:46;18.50;1.00
15977;DHT22;8091;51.914;12.786;2022-07-06T05:26:11;18.50;99.90
15977;DHT22;8091;51.914;12.786;2022-07-06T05:28:37;18.60;99.90
15977;DHT22;8091;51.914;12.786;2022-07-06T05:31:03;18.40;99.90
15977;DHT22;8091;51.914;12.786;2022-07-06T05:33:28;18.10;99.90
15977;DHT22;8091;51.914;12.786;2022-07-06T05:35:54;18.10;1.00
15977;DHT22;8091;51.914;12.786;2022-07-06T05:38:19;18.00;1.00
15977;DHT22;8091;51.914;12.786;2022-07-06T05:40:46;18.20;1.00
15977;DHT22;8091;51.914;12.786;2022-07-06T05:43:12;18.20;99.90
15977;DHT22;8091;51.914;12.786;2022-07-06T05:45:37;18.10;99.90
15977;DHT22;8091;51.914;12.786;2022-07-06T05:48:03;18.10;99.90
15977;DHT22;8091;51.914;12.786;2022-07-06T05:50:48;18.00;99.90
15977;DHT22;8091;51.914;12.786;2022-07-06T05:53:13;18.00;99.90
15977;DHT22;8091;51.914;12.786;2022-07-06T05:55:39;18.10;99.90
15977;DHT22;8091;51.914;12.786;2022-07-06T05:58:04;18.30;99.90
15977;DHT22;8091;51.914;12.786;2022-07-06T06:00:30;18.60;99.90
15977;DHT22;8091;51.914;12.786;2022-07-06T06:02:58;18.60;99.90
15977;DHT22;8091;51.914;12.786;2022-07-06T06:05:24;18.70;99.90
15977;DHT22;8091;51.914;12.786;2022-07-06T06:07:50;18.90;99.90
15977;DHT22;8091;51.914;12.786;2022-07-06T06:10:17;18.90;99.90
15977;DHT22;8091;51.914;12.786;2022-07-06T06:12:50;19.10;99.90
15977;DHT22;8091;51.914;12.786;2022-07-06T06:15:16;19.20;99.90
15977;DHT22;8091;51.914;12.786;2022-07-06T06:17:45;19.40;99.90
15977;DHT22;8091;51.914;12.786;2022-07-06T06:20:13;19.50;99.90
15977;DHT22;8091;51.914;12.786;2022-07-06T06:22:51;19.60;99.90
15977;DHT22;8091;51.914;12.786;2022-07-06T06:25:26;19.70;99.90
15977;DHT22;8091;51.914;12.786;2022-07-06T06:27:52;19.60;99.90
15977;DHT22;8091;51.914;12.786;2022-07-06T06:30:18;19.60;99.90
15977;DHT22;8091;51.914;12.786;2022-07-06T06:32:44;19.70;99.90
15977;DHT22;8091;51.914;12.786;2022-07-06T06:35:10;19.70;99.90
15977;DHT22;8091;51.914;12.786;2022-07-06T06:37:39;19.70;99.90
15977;DHT22;8091;51.914;12.786;2022-07-06T06:40:09;19.60;99.90
15977;DHT22;8091;51.914;12.786;2022-07-06T06:42:38;19.60;99.90
15977;DHT22;8091;51.914;12.786;2022-07-06T06:45:08;19.30;99.90
15977;DHT22;8091;51.914;12.786;2022-07-06T06:47:33;19.30;99.90
15977;DHT22;8091;51.914;12.786;2022-07-06T06:50:00;19.10;99.90
15977;DHT22;8091;51.914;12.786;2022-07-06T06:52:29;19.10;99.90
15977;DHT22;8091;51.914;12.786;2022-07-06T06:54:55;19.00;99.90
15977;DHT22;8091;51.914;12.786;2022-07-06T06:57:21;19.10;99.90
15977;DHT22;8091;51.914;12.786;2022-07-06T06:59:50;19.20;99.90
15977;DHT22;8091;51.914;12.786;2022-07-06T07:02:15;19.40;99.90
15977;DHT22;8091;51.914;12.786;2022-07-06T07:04:41;19.50;99.90
15977;DHT22;8091;51.914;12.786;2022-07-06T07:07:10;19.70;99.90
15977;DHT22;8091;51.914;12.786;2022-07-06T07:09:36;19.90;99.90
15977;DHT22;8091;51.914;12.786;2022-07-06T07:12:02;20.10;99.90
15977;DHT22;8091;51.914;12.786;2022-07-06T07:14:33;20.40;99.90
15977;DHT22;8091;51.914;12.786;2022-07-06T07:17:01;20.50;99.90
15977;DHT22;8091;51.914;12.786;2022-07-06T07:19:27;20.40;99.90
15977;DHT22;8091;51.914;12.786;2022-07-06T07:21:52;20.30;99.90
15977;DHT22;8091;51.914;12.786;2022-07-06T07:24:18;19.90;99.90
15977;DHT22;8091;51.914;12.786;2022-07-06T07:26:49;19.60;99.90
15977;DHT22;8091;51.914;12.786;2022-07-06T07:29:15;19.70;99.90
15977;DHT22;8091;51.914;12.786;2022-07-06T07:31:41;19.50;99.90
15977;DHT22;8091;51.914;12.786;2022-07-06T07:34:06;19.60;99.90
15977;DHT22;8091;51.914;12.786;2022-07-06T07:36:32;19.90;99.90
15977;DHT22;8091;51.914;12.786;2022-07-06T07:38:58;20.20;99.90
15977;DHT22;8091;51.914;12.786;2022-07-06T07:41:23;20.50;99.90
15977;DHT22;8091;51.914;12.786;2022-07-06T07:43:49;20.70;99.90
15977;DHT22;8091;51.914;12.786;2022-07-06T07:46:15;20.60;99.90
15977;DHT22;8091;51.914;12.786;2022-07-06T07:48:41;20.40;98.70
15977;DHT22;8091;51.914;12.786;2022-07-06T07:51:07;20.50;99.10
15977;DHT22;8091;51.914;12.786;2022-07-06T07:53:33;20.60;98.50
15977;DHT22;8091;51.914;12.786;2022-07-06T07:55:58;20.60;95.10
15977;DHT22;8091;51.914;12.786;2022-07-06T07:58:24;20.70;91.50
15977;DHT22;8091;51.914;12.786;2022-07-06T08:00:50;20.70;87.30
15977;DHT22;8091;51.914;12.786;2022-07-06T08:03:15;20.80;81.40
15977;DHT22;8091;51.914;12.786;2022-07-06T08:05:41;21.00;78.40
15977;DHT22;8091;51.914;12.786;2022-07-06T08:08:07;21.10;68.50
15977;DHT22;8091;51.914;12.786;2022-07-06T08:10:33;21.10;62.50
15977;DHT22;8091;51.914;12.786;2022-07-06T08:12:58;21.10;62.10
15977;DHT22;8091;51.914;12.786;2022-07-06T08:15:24;21.30;63.60
15977;DHT22;8091;51.914;12.786;2022-07-06T08:17:50;21.40;55.20
15977;DHT22;8091;51.914;12.786;2022-07-06T08:20:16;21.40;53.00
15977;DHT22;8091;51.914;12.786;2022-07-06T08:22:42;21.60;43.40
15977;DHT22;8091;51.914;12.786;2022-07-06T08:25:08;21.60;35.40
15977;DHT22;8091;51.914;12.786;2022-07-06T08:27:34;21.70;27.70
15977;DHT22;8091;51.914;12.786;2022-07-06T08:30:00;21.80;24.20
15977;DHT22;8091;51.914;12.786;2022-07-06T08:32:26;21.80;19.90
15977;DHT22;8091;51.914;12.786;2022-07-06T08:34:55;21.80;17.40
15977;DHT22;8091;51.914;12.786;2022-07-06T08:37:20;21.70;30.30
15977;DHT22;8091;51.914;12.786;2022-07-06T08:39:46;21.80;12.10
15977;DHT22;8091;51.914;12.786;2022-07-06T08:42:12;21.60;11.70
15977;DHT22;8091;51.914;12.786;2022-07-06T08:44:40;21.50;10.00
15977;DHT22;8091;51.914;12.786;2022-07-06T08:47:07;21.20;4.90
15977;DHT22;8091;51.914;12.786;2022-07-06T08:49:33;20.90;4.80
15977;DHT22;8091;51.914;12.786;2022-07-06T08:52:00;21.10;6.20
15977;DHT22;8091;51.914;12.786;2022-07-06T08:54:28;21.30;7.60
15977;DHT22;8091;51.914;12.786;2022-07-06T08:56:54;21.60;7.70
15977;DHT22;8091;51.914;12.786;2022-07-06T08:59:20;21.40;5.70
15977;DHT22;8091;51.914;12.786;2022-07-06T09:01:46;21.20;6.40
15977;DHT22;8091;51.914;12.786;2022-07-06T09:04:15;21.10;6.90
15977;DHT22;8091;51.914;12.786;2022-07-06T09:06:43;21.20;6.70
15977;DHT22;8091;51.914;12.786;2022-07-06T09:09:14;21.40;4.10
15977;DHT22;8091;51.914;12.786;2022-07-06T09:11:42;21.40;1.90
15977;DHT22;8091;51.914;12.786;2022-07-06T09:14:09;21.60;1.00
15977;DHT22;8091;51.914;12.786;2022-07-06T09:16:34;21.60;1.80
15977;DHT22;8091;51.914;12.786;2022-07-06T09:19:01;22.00;1.00
15977;DHT22;8091;51.914;12.786;2022-07-06T09:21:28;21.80;1.00
15977;DHT22;8091;51.914;12.786;2022-07-06T09:24:00;21.50;1.00
15977;DHT22;8091;51.914;12.786;2022-07-06T09:26:26;21.30;1.00
15977;DHT22;8091;51.914;12.786;2022-07-06T09:28:55;21.10;1.00
15977;DHT22;8091;51.914;12.786;2022-07-06T09:31:21;21.20;1.00
15977;DHT22;8091;51.914;12.786;2022-07-06T09:33:56;21.10;1.00
15977;DHT22;8091;51.914;12.786;2022-07-06T09:39:23;21.30;1.00
15977;DHT22;8091;51.914;12.786;2022-07-06T09:41:51;21.50;1.00
15977;DHT22;8091;51.914;12.786;2022-07-06T09:44:29;21.80;1.00
15977;DHT22;8091;51.914;12.786;2022-07-06T09:47:01;21.90;1.00
15977;DHT22;8091;51.914;12.786;2022-07-06T09:49:27;21.90;1.00
15977;DHT22;8091;51.914;12.786;2022-07-06T09:51:56;21.90;1.00
15977;DHT22;8091;51.914;12.786;2022-07-06T09:54:22;22.10;1.00
15977;DHT22;8091;51.914;12.786;2022-07-06T09:56:48;22.00;1.00
15977;DHT22;8091;51.914;12.786;2022-07-06T09:59:22;21.90;1.00
15977;DHT22;8091;51.914;12.786;2022-07-06T10:01:55;21.80;1.00
15977;DHT22;8091;51.914;12.786;2022-07-06T10:04:23;22.00;1.00
15977;DHT22;8091;51.914;12.786;2022-07-06T10:06:49;22.00;1.00
15977;DHT22;8091;51.914;12.786;2022-07-06T10:09:15;22.00;1.00
15977;DHT22;8091;51.914;12.786;2022-07-06T10:11:49;22.20;1.00
15977;DHT22;8091;51.914;12.786;2022-07-06T10:14:20;22.40;1.00
15977;DHT22;8091;51.914;12.786;2022-07-06T10:16:46;22.40;1.00
15977;DHT22;8091;51.914;12.786;2022-07-06T10:19:14;22.50;1.00
15977;DHT22;8091;51.914;12.786;2022-07-06T10:21:40;22.20;1.00
15977;DHT22;8091;51.914;12.786;2022-07-06T10:24:07;22.30;1.00
15977;DHT22;8091;51.914;12.786;2022-07-06T10:26:34;22.20;1.00
15977;DHT22;8091;51.914;12.786;2022-07-06T10:29:03;22.20;1.00
15977;DHT22;8091;51.914;12.786;2022-07-06T10:31:30;22.60;1.00
15977;DHT22;8091;51.914;12.786;2022-07-06T10:33:57;22.80;1.00
15977;DHT22;8091;51.914;12.786;2022-07-06T10:36:24;22.80;1.00
15977;DHT22;8091;51.914;12.786;2022-07-06T10:38:51;22.90;1.00
15977;DHT22;8091;51.914;12.786;2022-07-06T10:41:17;22.90;1.00
15977;DHT22;8091;51.914;12.786;2022-07-06T10:43:47;23.00;1.00
15977;DHT22;8091;51.914;12.786;2022-07-06T10:46:16;22.90;1.00
15977;DHT22;8091;51.914;12.786;2022-07-06T10:48:45;22.70;1.00
15977;DHT22;8091;51.914;12.786;2022-07-06T10:51:13;22.60;1.00
15977;DHT22;8091;51.914;12.786;2022-07-06T10:53:59;23.10;1.00
15977;DHT22;8091;51.914;12.786;2022-07-06T10:56:40;23.50;1.00
15977;DHT22;8091;51.914;12.786;2022-07-06T10:59:15;24.00;1.00
15977;DHT22;8091;51.914;12.786;2022-07-06T11:02:10;24.70;1.00
15977;DHT22;8091;51.914;12.786;2022-07-06T11:04:31;25.10;1.00
15977;DHT22;8091;51.914;12.786;2022-07-06T11:07:16;25.10;1.00
15977;DHT22;8091;51.914;12.786;2022-07-06T11:09:56;24.70;1.00
15977;DHT22;8091;51.914;12.786;2022-07-06T11:12:22;24.40;1.00
15977;DHT22;8091;51.914;12.786;2022-07-06T11:14:49;24.30;1.00
15977;DHT22;8091;51.914;12.786;2022-07-06T11:17:16;24.30;1.00
15977;DHT22;8091;51.914;12.786;2022-07-06T11:20:08;24.30;1.00
15977;DHT22;8091;51.914;12.786;2022-07-06T11:22:36;24.40;1.00
15977;DHT22;8091;51.914;12.786;2022-07-06T11:25:03;24.20;1.00
15977;DHT22;8091;51.914;12.786;2022-07-06T11:27:29;24.40;1.00
15977;DHT22;8091;51.914;12.786;2022-07-06T11:29:55;23.90;1.00
15977;DHT22;8091;51.914;12.786;2022-07-06T11:32:25;23.60;1.00
15977;DHT22;8091;51.914;12.786;2022-07-06T11:34:52;23.60;1.00
15977;DHT22;8091;51.914;12.786;2022-07-06T11:37:18;23.20;1.00
15977;DHT22;8091;51.914;12.786;2022-07-06T11:39:45;23.10;1.00
15977;DHT22;8091;51.914;12.786;2022-07-06T11:42:15;23.20;1.00
15977;DHT22;8091;51.914;12.786;2022-07-06T11:44:45;23.40;1.00
15977;DHT22;8091;51.914;12.786;2022-07-06T11:47:12;23.00;1.00
15977;DHT22;8091;51.914;12.786;2022-07-06T11:49:40;23.10;1.00
15977;DHT22;8091;51.914;12.786;2022-07-06T11:52:07;23.30;1.00
15977;DHT22;8091;51.914;12.786;2022-07-06T11:54:33;23.40;1.00
15977;DHT22;8091;51.914;12.786;2022-07-06T11:57:00;23.60;1.00
15977;DHT22;8091;51.914;12.786;2022-07-06T11:59:33;23.70;1.00
15977;DHT22;8091;51.914;12.786;2022-07-06T12:02:06;23.90;1.00
15977;DHT22;8091;51.914;12.786;2022-07-06T12:04:34;24.30;1.00
15977;DHT22;8091;51.914;12.786;2022-07-06T12:07:07;25.40;1.00
15977;DHT22;8091;51.914;12.786;2022-07-06T12:09:35;25.70;1.00
15977;DHT22;8091;51.914;12.786;2022-07-06T12:12:02;25.40;1.00
15977;DHT22;8091;51.914;12.786;2022-07-06T12:14:30;25.40;1.00
15977;DHT22;8091;51.914;12.786;2022-07-06T12:16:56;25.30;1.00
15977;DHT22;8091;51.914;12.786;2022-07-06T12:19:27;25.60;1.00
15977;DHT22;8091;51.914;12.786;2022-07-06T12:21:53;25.90;1.00
15977;DHT22;8091;51.914;12.786;2022-07-06T12:24:29;27.00;1.00
15977;DHT22;8091;51.914;12.786;2022-07-06T12:26:56;27.50;1.00
15977;DHT22;8091;51.914;12.786;2022-07-06T12:29:23;28.20;1.00
15977;DHT22;8091;51.914;12.786;2022-07-06T12:31:51;28.60;1.00
15977;DHT22;8091;51.914;12.786;2022-07-06T12:34:22;29.10;1.00
15977;DHT22;8091;51.914;12.786;2022-07-06T12:36:55;29.20;1.00
15977;DHT22;8091;51.914;12.786;2022-07-06T12:39:23;28.50;1.00
15977;DHT22;8091;51.914;12.786;2022-07-06T12:41:51;27.70;1.00
15977;DHT22;8091;51.914;12.786;2022-07-06T12:44:24;27.10;1.00
15977;DHT22;8091;51.914;12.786;2022-07-06T12:47:01;26.40;1.00
15977;DHT22;8091;51.914;12.786;2022-07-06T12:49:27;25.80;1.00
15977;DHT22;8091;51.914;12.786;2022-07-06T12:54:26;24.70;1.00
15977;DHT22;8091;51.914;12.786;2022-07-06T12:59:30;24.60;1.00
15977;DHT22;8091;51.914;12.786;2022-07-06T13:01:56;25.30;1.00
15977;DHT22;8091;51.914;12.786;2022-07-06T13:04:24;25.10;1.00
15977;DHT22;8091;51.914;12.786;2022-07-06T13:06:50;25.30;1.00
15977;DHT22;8091;51.914;12.786;2022-07-06T13:09:15;26.30;1.00
15977;DHT22;8091;51.914;12.786;2022-07-06T13:11:42;27.00;1.00
15977;DHT22;8091;51.914;12.786;2022-07-06T13:14:08;26.70;1.00
15977;DHT22;8091;51.914;12.786;2022-07-06T13:16:35;25.90;1.00
15977;DHT22;8091;51.914;12.786;2022-07-06T13:19:01;25.10;1.00
15977;DHT22;8091;51.914;12.786;2022-07-06T13:21:27;24.50;1.00
15977;DHT22;8091;51.914;12.786;2022-07-06T13:23:53;24.20;1.00
15977;DHT22;8091;51.914;12.786;2022-07-06T13:26:18;23.90;1.00
15977;DHT22;8091;51.914;12.786;2022-07-06T13:28:44;23.50;1.00
15977;DHT22;8091;51.914;12.786;2022-07-06T13:31:11;23.30;1.00
15977;DHT22;8091;51.914;12.786;2022-07-06T13:33:36;23.60;1.00
15977;DHT22;8091;51.914;12.786;2022-07-06T13:36:02;23.90;1.00
15977;DHT22;8091;51.914;12.786;2022-07-06T13:38:28;24.30;1.00
15977;DHT22;8091;51.914;12.786;2022-07-06T13:40:53;24.50;1.00
15977;DHT22;8091;51.914;12.786;2022-07-06T13:43:19;24.50;1.00
15977;DHT22;8091;51.914;12.786;2022-07-06T13:45:46;24.60;1.00
15977;DHT22;8091;51.914;12.786;2022-07-06T13:48:11;25.30;1.00
15977;DHT22;8091;51.914;12.786;2022-07-06T13:50:37;26.00;1.00
15977;DHT22;8091;51.914;12.786;2022-07-06T13:53:03;26.50;1.00
15977;DHT22;8091;51.914;12.786;2022-07-06T13:55:29;26.30;1.00
15977;DHT22;8091;51.914;12.786;2022-07-06T13:57:55;25.80;1.00
15977;DHT22;8091;51.914;12.786;2022-07-06T14:00:21;25.50;1.00
15977;DHT22;8091;51.914;12.786;2022-07-06T14:02:46;25.50;1.00
15977;DHT22;8091;51.914;12.786;2022-07-06T14:05:12;25.40;1.00
15977;DHT22;8091;51.914;12.786;2022-07-06T14:07:38;24.70;1.00
15977;DHT22;8091;51.914;12.786;2022-07-06T14:10:04;24.20;1.00
15977;DHT22;8091;51.914;12.786;2022-07-06T14:12:29;24.40;1.00
15977;DHT22;8091;51.914;12.786;2022-07-06T14:14:55;24.70;1.00
15977;DHT22;8091;51.914;12.786;2022-07-06T14:17:21;24.50;1.00
15977;DHT22;8091;51.914;12.786;2022-07-06T14:19:48;23.90;1.00
15977;DHT22;8091;51.914;12.786;2022-07-06T14:22:16;23.50;1.00
15977;DHT22;8091;51.914;12.786;2022-07-06T14:24:42;23.20;1.00
15977;DHT22;8091;51.914;12.786;2022-07-06T14:27:08;23.10;1.00
15977;DHT22;8091;51.914;12.786;2022-07-06T14:29:33;23.20;1.00
15977;DHT22;8091;51.914;12.786;2022-07-06T14:32:02;23.50;1.00
15977;DHT22;8091;51.914;12.786;2022-07-06T14:34:28;23.60;1.00
15977;DHT22;8091;51.914;12.786;2022-07-06T14:36:54;23.70;1.00
15977;DHT22;8091;51.914;12.786;2022-07-06T14:39:21;23.70;1.00
15977;DHT22;8091;51.914;12.786;2022-07-06T14:41:46;23.50;1.00
15977;DHT22;8091;51.914;12.786;2022-07-06T14:44:12;23.80;1.00
15977;DHT22;8091;51.914;12.786;2022-07-06T14:46:37;24.00;1.00
15977;DHT22;8091;51.914;12.786;2022-07-06T14:49:03;24.20;1.00
15977;DHT22;8091;51.914;12.786;2022-07-06T14:51:28;24.10;1.00
15977;DHT22;8091;51.914;12.786;2022-07-06T14:53:54;24.20;1.00
15977;DHT22;8091;51.914;12.786;2022-07-06T14:56:20;24.10;1.00
15977;DHT22;8091;51.914;12.786;2022-07-06T14:58:45;24.00;1.00
15977;DHT22;8091;51.914;12.786;2022-07-06T15:01:11;23.90;1.00
15977;DHT22;8091;51.914;12.786;2022-07-06T15:03:39;23.90;1.00
15977;DHT22;8091;51.914;12.786;2022-07-06T15:06:05;24.00;1.00
15977;DHT22;8091;51.914;12.786;2022-07-06T15:08:31;24.00;1.00
15977;DHT22;8091;51.914;12.786;2022-07-06T15:10:56;24.10;1.00
15977;DHT22;8091;51.914;12.786;2022-07-06T15:13:22;24.30;1.00
15977;DHT22;8091;51.914;12.786;2022-07-06T15:15:48;24.40;1.00
15977;DHT22;8091;51.914;12.786;2022-07-06T15:18:13;24.50;1.00
15977;DHT22;8091;51.914;12.786;2022-07-06T15:20:39;24.30;1.00
15977;DHT22;8091;51.914;12.786;2022-07-06T15:23:04;24.60;1.00
15977;DHT22;8091;51.914;12.786;2022-07-06T15:25:30;25.00;1.00
15977;DHT22;8091;51.914;12.786;2022-07-06T15:27:56;25.10;1.00
15977;DHT22;8091;51.914;12.786;2022-07-06T15:30:22;24.90;1.00
15977;DHT22;8091;51.914;12.786;2022-07-06T15:32:48;24.30;1.00
15977;DHT22;8091;51.914;12.786;2022-07-06T15:35:14;23.50;1.00
15977;DHT22;8091;51.914;12.786;2022-07-06T15:37:41;23.20;1.00
15977;DHT22;8091;51.914;12.786;2022-07-06T15:40:12;23.30;1.00
15977;DHT22;8091;51.914;12.786;2022-07-06T15:42:40;23.30;1.00
15977;DHT22;8091;51.914;12.786;2022-07-06T15:45:07;23.20;1.00
15977;DHT22;8091;51.914;12.786;2022-07-06T15:47:32;23.40;1.00